Smithfield, North Carolina
Current Conditions -  °F | °C
As of 7:35 AM on Saturday 25 Oct 2014 (Local Time) from KJNX Reporting Station
Haze Haze  
Wind Chill: 39°   Ceiling: Unl
Heat Index: 39°   Visibility: 2.5mi
Dew Point: 39°   Wind: 0mph
Humidity: 100%   Direction: NA
Pressure: 30"   Gusts: NA
Location:  35.51°N, 78.35°W
Report Text: KJNX 251135Z AUTO 00000KT 2 1/2SM BR CLR 04/04 A3000 RMK AO2
Loading
Personal Weather Stations






























Interactive Weather Map
Tropical Storm Tracking
New forecast layout! Learn more

10-Day Weather Forecast

Advertisements
Track Severe Weather on mobile